Columbus, Ohio
Traffic Map
Current Weather Conditions
Columbus, Ohio
Broken Clouds
Broken Clouds
76°
Feels Like: 76°
Wind Chill: 76° Ceiling: 11000
Heat Index: 76° Visibility: 10mi
Dew Point: 57° Wind: 17mph
Humidity: 52% Direction: 210° (SSW)
Pressure: 30.14in Gusts: 28mph
Raw Report DataKCMH 251451Z 21015G24KT 10SM SCT040 SCT070 BKN110 24/14 A3014 RMK AO2 SLP200 T02440139 50001
Traffic Incident Summary
Active as of:
Severity:
Category:
InformationThere was an issue retrieving the traffic information for this location. Please try a different location or try again shortly.
Advertisements
Track Severe Weather on mobile